Time;durP1;ratioP1;P1;durP2;ratioP2;P2;SDS_P1;SDS_P2;PMS_P1;PMS_P2;Temp;Humidity;BMP_temperature;BMP_pressure;BME280_temperature;BME280_humidity;BME280_pressure;Samples;Min_cycle;Max_cycle;Signal;HPM_P1;HPM_P2
2022/04/12 00:00:36;;;;;;;6.50;4.03;;;;;;;8.57;53.91;101045.34;4979150;28;20037;-78
2022/04/12 00:03:02;;;;;;;6.22;3.67;;;;;;;8.56;54.12;101048.81;4978084;28;20023;-78
2022/04/12 00:05:27;;;;;;;5.60;4.00;;;;;;;8.54;54.52;101039.34;4975929;28;20045;-77
2022/04/12 00:07:53;;;;;;;5.80;3.65;;;;;;;8.54;54.37;101034.16;4979139;28;20482;-76
2022/04/12 00:10:18;;;;;;;5.53;3.70;;;;;;;8.52;54.70;101039.38;4979515;28;20103;-78
2022/04/12 00:12:44;;;;;;;5.72;3.70;;;;;;;8.52;54.91;101031.59;4980675;28;20264;-78
2022/04/12 00:15:10;;;;;;;5.45;3.72;;;;;;;8.51;54.94;101027.31;4976944;28;20034;-78
2022/04/12 00:20:26;;;;;;;8.35;4.00;;;;;;;8.49;56.06;101013.50;4977584;28;20058;-78
2022/04/12 00:22:51;;;;;;;8.27;3.75;;;;;;;8.48;55.99;101014.38;4977615;28;20367;-78
2022/04/12 00:25:18;;;;;;;5.25;3.65;;;;;;;8.45;55.82;101006.59;4977903;28;20026;-78
2022/04/12 00:27:44;;;;;;;7.15;4.05;;;;;;;8.43;55.21;101013.53;4960252;28;20034;-77
2022/04/12 00:30:13;;;;;;;8.43;3.92;;;;;;;8.41;55.75;101013.56;4975122;28;20046;-78
2022/04/12 00:32:39;;;;;;;6.20;3.53;;;;;;;8.41;55.83;101010.97;4977763;28;20134;-78
2022/04/12 00:35:05;;;;;;;5.68;3.50;;;;;;;8.40;56.10;101013.56;4977734;28;20114;-78
2022/04/12 00:37:31;;;;;;;6.18;3.55;;;;;;;8.39;55.79;101011.84;4977697;28;20034;-78
2022/04/12 00:39:56;;;;;;;5.45;3.70;;;;;;;8.39;55.44;101010.13;4976007;28;20027;-78
2022/04/12 00:42:22;;;;;;;5.07;3.45;;;;;;;8.39;55.75;101004.09;4977784;28;20076;-78
2022/04/12 00:44:47;;;;;;;5.30;3.70;;;;;;;8.37;55.88;101009.31;4975565;28;20548;-78
2022/04/12 00:47:14;;;;;;;6.10;3.80;;;;;;;8.34;55.41;101004.16;4976162;28;20660;-77
2022/04/12 00:49:40;;;;;;;5.60;3.40;;;;;;;8.33;55.59;101005.91;4976370;28;20438;-77
2022/04/12 00:52:06;;;;;;;5.60;3.30;;;;;;;8.31;55.74;101005.06;4978254;28;20035;-78
2022/04/12 00:54:34;;;;;;;7.03;3.85;;;;;;;8.30;56.12;100995.56;4977237;28;20469;-78
2022/04/12 00:56:59;;;;;;;6.20;3.22;;;;;;;8.26;56.33;100999.06;4958955;28;20091;-78
2022/04/12 00:59:27;;;;;;;6.22;3.10;;;;;;;8.25;56.29;100996.53;4977939;28;20031;-78
2022/04/12 01:01:52;;;;;;;5.63;3.30;;;;;;;8.24;56.11;100997.41;4975759;28;20026;-77
2022/04/12 01:04:18;;;;;;;5.85;3.10;;;;;;;8.23;55.84;101004.28;4977788;28;20038;-77
2022/04/12 01:06:44;;;;;;;5.05;3.08;;;;;;;8.23;55.83;100995.69;4976720;28;20034;-78
2022/04/12 01:09:09;;;;;;;6.47;3.50;;;;;;;8.22;56.54;100992.22;4974970;28;20030;-78
2022/04/12 01:11:36;;;;;;;4.47;3.03;;;;;;;8.20;56.54;100999.16;4976075;28;20109;-78
2022/04/12 01:14:02;;;;;;;5.05;3.30;;;;;;;8.18;56.45;101006.13;4980123;28;20383;-78
2022/04/12 01:16:27;;;;;;;5.15;3.35;;;;;;;8.16;57.39;101011.28;4976036;28;20046;-77
2022/04/12 01:18:53;;;;;;;5.90;3.40;;;;;;;8.14;56.29;101004.44;4976640;28;20414;-77
2022/04/12 01:21:20;;;;;;;4.03;2.85;;;;;;;8.13;56.28;101000.97;4974243;28;20385;-77
2022/04/12 01:24:00;;;;;;;6.68;3.50;;;;;;;8.11;56.87;101001.88;4974656;28;20054;-77
2022/04/12 01:26:26;;;;;;;5.47;3.40;;;;;;;8.08;57.06;100997.59;4976479;28;20494;-77
2022/04/12 01:28:51;;;;;;;7.55;3.80;;;;;;;8.06;57.93;100994.16;4979092;28;20042;-77
2022/04/12 01:31:16;;;;;;;5.32;3.58;;;;;;;8.02;57.52;100998.53;4978352;28;20100;-77
2022/04/12 01:33:42;;;;;;;5.55;3.20;;;;;;;7.99;56.86;101001.16;4977434;28;20490;-77
2022/04/12 01:36:07;;;;;;;5.30;3.30;;;;;;;7.98;58.74;101003.75;4975275;28;20030;-77
2022/04/12 01:38:32;;;;;;;6.28;3.90;;;;;;;7.95;60.10;100998.59;4975476;28;20031;-77
2022/04/12 01:40:58;;;;;;;6.70;3.40;;;;;;;7.92;58.38;101004.69;4976041;28;20019;-78
2022/04/12 01:43:23;;;;;;;5.28;3.58;;;;;;;7.89;57.71;100994.38;4972929;28;20030;-77
2022/04/12 01:45:48;;;;;;;5.63;3.67;;;;;;;7.85;58.43;100996.13;4975296;28;20053;-77
2022/04/12 01:48:14;;;;;;;6.97;3.40;;;;;;;7.83;58.67;101002.22;4972561;28;20057;-77
2022/04/12 01:50:39;;;;;;;7.45;3.50;;;;;;;7.81;59.68;100996.19;4976677;28;20470;-77
2022/04/12 01:53:05;;;;;;;6.53;3.45;;;;;;;7.79;59.11;101003.97;4975984;28;20462;-77
2022/04/12 01:55:30;;;;;;;10.32;3.33;;;;;;;7.75;59.15;100999.72;4979425;28;20030;-78
2022/04/12 01:57:55;;;;;;;5.63;3.63;;;;;;;7.71;59.06;100996.28;4976755;28;20042;-78
2022/04/12 02:00:20;;;;;;;6.30;4.05;;;;;;;7.68;58.73;100996.34;4976800;28;20034;-77
2022/04/12 02:02:46;;;;;;;6.82;3.75;;;;;;;7.63;60.67;100995.53;4958406;28;20026;-77
2022/04/12 02:05:11;;;;;;;5.70;3.55;;;;;;;7.60;59.90;100987.78;4974026;28;20364;-77
2022/04/12 02:07:36;;;;;;;6.18;3.40;;;;;;;7.55;59.28;100977.50;4975747;28;20027;-77
2022/04/12 02:10:03;;;;;;;9.27;3.50;;;;;;;7.51;59.94;100974.97;4976470;28;20026;-77
2022/04/12 02:12:29;;;;;;;5.88;3.63;;;;;;;7.48;59.00;100968.06;4977513;28;20041;-77
2022/04/12 02:14:54;;;;;;;4.95;3.67;;;;;;;7.46;59.50;100972.41;4973756;28;20035;-78
2022/04/12 02:17:19;;;;;;;4.95;3.50;;;;;;;7.46;59.02;100974.16;4976944;28;20055;-77
2022/04/12 02:19:45;;;;;;;6.68;3.80;;;;;;;7.43;59.22;100975.91;4974968;28;20054;-77
2022/04/12 02:22:10;;;;;;;5.90;3.88;;;;;;;7.43;58.85;100986.25;4978583;28;20410;-77
2022/04/12 02:24:35;;;;;;;6.32;3.80;;;;;;;7.42;58.74;100981.09;4978392;28;20046;-77
2022/04/12 02:27:01;;;;;;;5.65;4.10;;;;;;;7.40;58.50;100982.84;4958128;28;20390;-77
2022/04/12 02:29:26;;;;;;;5.40;3.55;;;;;;;7.40;58.90;100978.50;4974141;28;20330;-77
2022/04/12 02:31:51;;;;;;;5.22;3.60;;;;;;;7.37;58.91;100978.53;4975090;28;20045;-77
2022/04/12 02:34:16;;;;;;;8.23;3.72;;;;;;;7.35;59.36;100975.09;4957724;28;20046;-77
2022/04/12 02:36:43;;;;;;;8.10;3.72;;;;;;;7.34;59.09;100973.41;4975421;28;20038;-78
2022/04/12 02:39:08;;;;;;;7.45;4.18;;;;;;;7.32;58.96;100969.97;4974636;28;20352;-78
2022/04/12 02:41:34;;;;;;;6.40;3.72;;;;;;;7.32;59.13;100969.09;4977315;28;20051;-77
2022/04/12 02:43:59;;;;;;;6.78;3.83;;;;;;;7.30;60.28;100969.13;4975380;28;20019;-77
2022/04/12 02:46:24;;;;;;;7.50;3.80;;;;;;;7.28;60.87;100969.13;4975057;28;20738;-77
2022/04/12 02:48:49;;;;;;;6.20;3.65;;;;;;;7.28;60.06;100965.69;4976693;28;20039;-77
2022/04/12 02:51:15;;;;;;;6.57;3.85;;;;;;;7.27;60.56;100976.91;4975795;28;20034;-77
2022/04/12 02:53:40;;;;;;;5.93;3.60;;;;;;;7.22;61.05;100958.84;4973457;28;20121;-77
2022/04/12 02:56:05;;;;;;;6.90;3.78;;;;;;;7.20;62.04;100960.59;4981663;28;20019;-77
2022/04/12 02:58:30;;;;;;;5.45;3.60;;;;;;;7.18;60.94;100956.28;4977550;28;20504;-77
2022/04/12 03:00:56;;;;;;;6.15;4.00;;;;;;;7.18;62.49;100957.16;4978733;28;20045;-77
2022/04/12 03:03:21;;;;;;;6.18;3.55;;;;;;;7.17;62.12;100954.59;4977367;28;20022;-77
2022/04/12 03:05:46;;;;;;;6.10;4.00;;;;;;;7.16;61.17;100952.91;4978810;28;20742;-77
2022/04/12 03:08:12;;;;;;;6.85;3.83;;;;;;;7.12;60.84;100949.44;4978520;28;20034;-77
2022/04/12 03:10:37;;;;;;;6.95;3.92;;;;;;;7.08;61.47;100940.88;4960424;28;20066;-77
2022/04/12 03:13:02;;;;;;;5.70;3.85;;;;;;;7.04;60.62;100944.34;4978526;28;20058;-77
2022/04/12 03:15:28;;;;;;;6.35;4.00;;;;;;;7.02;60.80;100940.91;4978101;28;20027;-77
2022/04/12 03:17:53;;;;;;;6.43;3.75;;;;;;;7.01;60.71;100939.22;4977304;28;20042;-77
2022/04/12 03:20:18;;;;;;;7.60;4.00;;;;;;;7.00;61.08;100942.69;4977885;28;20030;-77
2022/04/12 03:22:43;;;;;;;6.22;4.00;;;;;;;6.98;61.00;100937.50;4980994;28;20030;-77
2022/04/12 03:25:10;;;;;;;6.25;3.50;;;;;;;6.97;60.76;100933.22;4981195;28;20022;-77
2022/04/12 03:27:35;;;;;;;5.35;3.50;;;;;;;6.97;60.51;100922.03;4979636;28;20034;-77
2022/04/12 03:30:00;;;;;;;6.47;4.20;;;;;;;6.98;61.16;100928.91;4981661;28;20023;-77
2022/04/12 03:32:26;;;;;;;6.35;3.83;;;;;;;6.96;61.17;100922.91;4981242;28;20062;-77
2022/04/12 03:34:51;;;;;;;6.75;3.80;;;;;;;6.95;60.92;100921.19;4975088;28;20503;-77
2022/04/12 03:37:17;;;;;;;6.93;3.75;;;;;;;6.94;60.29;100914.28;4976407;28;20038;-77
2022/04/12 03:39:45;;;;;;;6.65;3.90;;;;;;;6.94;60.84;100909.97;4977654;28;20031;-77
2022/04/12 03:42:11;;;;;;;5.60;3.67;;;;;;;6.92;60.98;100909.13;4963364;28;20441;-77
2022/04/12 03:44:37;;;;;;;7.20;4.40;;;;;;;6.90;60.82;100899.66;4977500;28;20509;-77
2022/04/12 03:47:03;;;;;;;5.97;3.63;;;;;;;6.88;61.66;100906.56;4977725;28;20037;-77
2022/04/12 03:49:28;;;;;;;6.30;3.83;;;;;;;6.89;61.52;100910.88;4981794;28;20038;-77
2022/04/12 03:51:53;;;;;;;6.60;4.32;;;;;;;6.87;61.53;100907.44;4983060;28;20027;-77
2022/04/12 03:54:18;;;;;;;5.20;3.65;;;;;;;6.85;61.21;100920.41;4981817;28;20532;-77
2022/04/12 03:56:44;;;;;;;5.78;3.42;;;;;;;6.83;61.63;100922.97;4978721;28;20038;-77
2022/04/12 03:59:09;;;;;;;5.28;3.42;;;;;;;6.83;61.33;100919.56;4977552;28;20077;-77
2022/04/12 04:01:35;;;;;;;6.30;3.95;;;;;;;6.81;61.92;100927.34;4980319;28;20041;-77
2022/04/12 04:04:00;;;;;;;6.72;4.13;;;;;;;6.81;61.82;100924.75;4976612;28;20494;-77
2022/04/12 04:06:25;;;;;;;6.68;4.10;;;;;;;6.81;62.32;100921.28;4975829;28;20038;-77
2022/04/12 04:08:51;;;;;;;5.93;4.03;;;;;;;6.81;61.90;100924.75;4976117;28;20118;-77
2022/04/12 04:11:16;;;;;;;5.63;3.72;;;;;;;6.81;61.72;100917.00;4977239;28;20486;-77
2022/04/12 04:13:42;;;;;;;7.63;4.07;;;;;;;6.82;61.54;100913.53;4976995;28;20054;-77
2022/04/12 04:16:07;;;;;;;6.15;4.07;;;;;;;6.82;61.63;100903.19;4980076;28;20493;-77
2022/04/12 04:18:34;;;;;;;10.02;4.40;;;;;;;6.80;61.86;100897.19;4976998;28;20033;-77
2022/04/12 04:20:59;;;;;;;8.55;4.32;;;;;;;6.81;61.95;100906.66;4979311;28;20041;-77
2022/04/12 04:23:24;;;;;;;7.85;4.32;;;;;;;6.82;61.44;100913.53;4976147;28;20039;-77
2022/04/12 04:25:50;;;;;;;9.07;4.50;;;;;;;6.86;61.57;100908.31;4976518;28;20043;-77
2022/04/12 04:28:21;;;;;;;9.07;4.47;;;;;;;6.87;61.94;100899.69;4977525;28;20053;-77
2022/04/12 04:30:49;;;;;;;6.32;3.85;;;;;;;6.90;61.61;100899.66;4957174;28;20065;-77
2022/04/12 04:33:14;;;;;;;7.95;4.50;;;;;;;6.89;62.13;100904.00;4977330;28;20035;-77
2022/04/12 04:35:40;;;;;;;8.65;3.92;;;;;;;6.91;61.58;100916.91;4979841;28;20018;-77
2022/04/12 04:38:05;;;;;;;7.75;4.15;;;;;;;6.91;61.93;100920.34;4975680;28;20026;-77
2022/04/12 04:40:31;;;;;;;9.88;4.10;;;;;;;6.92;62.07;100921.19;4979223;28;20386;-77
2022/04/12 04:42:56;;;;;;;6.47;4.13;;;;;;;6.91;62.14;100919.47;4978576;28;20030;-77
2022/04/12 04:45:22;;;;;;;7.40;4.13;;;;;;;6.87;62.17;100913.50;4979203;28;20494;-77
2022/04/12 04:47:58;;;;;;;7.72;4.45;;;;;;;6.88;62.07;100916.91;4975546;28;20019;-77
2022/04/12 04:50:25;;;;;;;6.95;4.18;;;;;;;6.84;61.94;100916.94;4979594;28;20030;-77
2022/04/12 04:52:50;;;;;;;7.80;4.70;;;;;;;6.83;62.32;100917.81;4979304;28;20030;-77
2022/04/12 04:55:16;;;;;;;6.72;4.45;;;;;;;6.82;62.29;100912.66;4977465;28;20405;-76
2022/04/12 04:57:43;;;;;;;7.45;4.35;;;;;;;6.80;62.39;100912.69;4975905;28;20038;-77
2022/04/12 05:00:16;;;;;;;7.78;4.47;;;;;;;6.81;62.00;100910.94;4977808;28;20026;-77
2022/04/12 05:02:52;;;;;;;6.47;4.38;;;;;;;6.80;61.95;100915.28;4970772;28;20034;-77
2022/04/12 05:05:18;;;;;;;7.43;4.80;;;;;;;6.80;62.23;100930.78;4975014;28;20030;-77
2022/04/12 05:07:46;;;;;;;9.20;4.72;;;;;;;6.80;62.21;100930.78;4977482;28;20733;-77
2022/04/12 05:10:17;;;;;;;7.10;4.75;;;;;;;6.82;62.26;100929.06;4973526;28;20125;-77
2022/04/12 05:12:42;;;;;;;8.30;5.10;;;;;;;6.86;63.49;100934.19;4977923;28;20031;-77
2022/04/12 05:15:08;;;;;;;6.90;4.40;;;;;;;6.91;63.53;100937.59;4974982;28;20137;-77
2022/04/12 05:17:33;;;;;;;10.85;4.85;;;;;;;6.93;62.82;100935.84;4975049;28;20043;-77
2022/04/12 05:19:58;;;;;;;9.85;4.65;;;;;;;6.97;63.14;100929.78;4977551;28;20033;-76
2022/04/12 05:22:25;;;;;;;7.35;4.55;;;;;;;7.02;61.96;100937.50;4978436;28;20026;-77
2022/04/12 05:24:51;;;;;;;8.23;4.25;;;;;;;7.07;63.54;100946.91;4975904;28;20038;-76
2022/04/12 05:27:17;;;;;;;10.93;4.47;;;;;;;7.13;64.12;100949.47;4977258;28;20034;-78
2022/04/12 05:29:42;;;;;;;8.23;4.90;;;;;;;7.18;63.70;100951.13;4976699;28;20035;-77
2022/04/12 05:32:09;;;;;;;8.30;4.95;;;;;;;7.23;62.35;100949.34;4974136;28;20034;-77
2022/04/12 05:34:45;;;;;;;8.57;4.80;;;;;;;7.31;62.38;100941.50;4976863;28;20060;-77
2022/04/12 05:37:11;;;;;;;8.02;4.88;;;;;;;7.37;63.12;100933.69;4964262;28;20022;-78
2022/04/12 05:39:36;;;;;;;8.00;4.80;;;;;;;7.42;63.11;100934.50;4976346;28;20474;-77
2022/04/12 05:42:02;;;;;;;7.75;4.65;;;;;;;7.48;62.49;100928.41;4976804;28;20105;-77
2022/04/12 05:44:28;;;;;;;8.90;4.70;;;;;;;7.53;63.05;100936.94;4977166;28;20050;-77
2022/04/12 05:46:54;;;;;;;9.25;4.53;;;;;;;7.57;62.51;100930.88;4978270;28;20045;-77
2022/04/12 05:49:19;;;;;;;8.73;4.72;;;;;;;7.58;63.10;100930.88;4978028;28;20026;-78
2022/04/12 05:51:45;;;;;;;7.60;4.60;;;;;;;7.58;62.66;100932.56;4977348;28;20080;-79
2022/04/12 05:54:10;;;;;;;9.05;4.68;;;;;;;7.57;62.99;100926.56;4980334;28;20117;-78
2022/04/12 05:56:35;;;;;;;10.38;4.72;;;;;;;7.57;62.33;100933.44;4980741;28;21236;-77
2022/04/12 05:59:00;;;;;;;8.32;4.85;;;;;;;7.56;62.62;100927.44;4980891;28;20084;-78
2022/04/12 06:01:25;;;;;;;9.93;5.40;;;;;;;7.57;62.69;100931.75;4978870;28;20026;-78
2022/04/12 06:03:51;;;;;;;10.13;5.30;;;;;;;7.59;62.98;100936.88;4980191;28;20726;-79
2022/04/12 06:06:16;;;;;;;10.05;4.75;;;;;;;7.60;63.02;100938.59;4961961;28;20038;-78
2022/04/12 06:08:41;;;;;;;7.32;4.72;;;;;;;7.65;62.24;100941.13;4979454;28;20034;-78
2022/04/12 06:11:07;;;;;;;9.85;5.25;;;;;;;7.67;62.52;100945.44;4982361;28;20034;-78
2022/04/12 06:13:32;;;;;;;8.18;4.90;;;;;;;7.71;62.39;100936.72;4985652;28;20038;-78
2022/04/12 06:15:57;;;;;;;7.57;4.85;;;;;;;7.77;62.12;100937.53;4981725;28;20541;-78
2022/04/12 06:18:22;;;;;;;10.30;5.57;;;;;;;7.85;62.42;100946.09;4983976;28;20105;-79
2022/04/12 06:20:48;;;;;;;10.18;5.07;;;;;;;7.93;62.24;100941.66;4984955;28;20038;-79
2022/04/12 06:23:14;;;;;;;8.38;5.43;;;;;;;8.00;61.92;100934.66;4983073;28;20044;-78
2022/04/12 06:25:39;;;;;;;8.65;5.35;;;;;;;8.10;62.42;100943.16;4980901;28;20125;-78
2022/04/12 06:28:07;;;;;;;9.00;5.32;;;;;;;8.19;62.25;100940.44;4980971;28;20466;-78
2022/04/12 06:30:32;;;;;;;10.40;5.32;;;;;;;8.29;61.98;100928.19;4983433;28;20469;-78
2022/04/12 06:32:58;;;;;;;8.77;5.20;;;;;;;8.40;62.17;100928.03;4986835;28;20474;-79
2022/04/12 06:35:23;;;;;;;7.38;4.75;;;;;;;8.48;61.56;100927.06;4989356;28;20042;-78
2022/04/12 06:37:53;;;;;;;8.98;4.95;;;;;;;8.58;61.32;100930.38;4988041;28;20022;-79
2022/04/12 06:40:19;;;;;;;7.78;4.90;;;;;;;8.66;60.63;100927.66;4966603;28;20393;-78
2022/04/12 06:42:45;;;;;;;10.38;5.53;;;;;;;8.75;61.40;100934.41;4980586;28;20062;-78
2022/04/12 06:45:13;;;;;;;9.30;5.10;;;;;;;8.81;61.61;100932.56;4985602;28;20034;-78
2022/04/12 06:47:40;;;;;;;9.75;5.70;;;;;;;8.89;60.55;100937.63;4985626;28;20441;-78
2022/04/12 06:50:07;;;;;;;12.05;4.93;;;;;;;8.94;61.15;100943.59;4980080;28;20093;-78
2022/04/12 06:52:32;;;;;;;8.07;5.13;;;;;;;9.00;59.71;100947.81;4977832;28;20022;-78
2022/04/12 06:54:58;;;;;;;8.88;5.00;;;;;;;9.05;59.27;100932.19;4978114;28;20112;-78
2022/04/12 06:57:23;;;;;;;8.30;5.57;;;;;;;9.10;59.56;100932.94;4979133;28;20425;-78
2022/04/12 06:59:51;;;;;;;8.73;5.20;;;;;;;9.16;60.55;100927.66;4980541;28;20022;-78
2022/04/12 07:02:16;;;;;;;8.43;5.25;;;;;;;9.22;60.22;100916.31;4964869;28;20393;-78
2022/04/12 07:04:41;;;;;;;11.25;5.47;;;;;;;9.32;60.26;100927.38;4975995;28;20034;-81
2022/04/12 07:07:07;;;;;;;11.05;5.68;;;;;;;9.39;59.79;100916.00;4978851;28;20034;-77
2022/04/12 07:09:32;;;;;;;9.05;4.95;;;;;;;9.48;60.12;100913.19;4978185;28;20092;-78
2022/04/12 07:11:59;;;;;;;12.18;5.45;;;;;;;9.57;59.29;100920.78;4976778;28;20722;-78
2022/04/12 07:14:25;;;;;;;8.15;5.35;;;;;;;9.67;58.96;100915.41;4984105;28;20608;-77
2022/04/12 07:16:50;;;;;;;9.75;5.45;;;;;;;9.76;57.92;100910.03;4979666;28;20057;-77
2022/04/12 07:19:16;;;;;;;8.98;5.20;;;;;;;9.84;59.45;100905.53;4977569;28;20034;-78
2022/04/12 07:21:41;;;;;;;8.45;4.78;;;;;;;9.96;60.21;100912.19;4980595;28;20031;-78
2022/04/12 07:24:07;;;;;;;8.93;5.15;;;;;;;10.05;58.53;100907.69;4976206;28;20057;-78
2022/04/12 07:26:32;;;;;;;10.00;4.93;;;;;;;10.14;58.94;100908.31;4980768;28;20041;-78
2022/04/12 07:28:58;;;;;;;9.48;5.20;;;;;;;10.24;57.92;100915.94;4980626;28;20026;-77
2022/04/12 07:31:24;;;;;;;11.52;5.10;;;;;;;10.33;58.06;100918.31;4978309;28;20054;-77
2022/04/12 07:33:50;;;;;;;9.23;5.20;;;;;;;10.41;58.56;100924.22;4982887;28;20112;-78
2022/04/12 07:36:15;;;;;;;10.32;5.15;;;;;;;10.48;56.92;100919.72;4985062;28;20593;-78
2022/04/12 07:38:41;;;;;;;8.98;5.10;;;;;;;10.58;56.66;100917.75;4981348;28;20035;-78
2022/04/12 07:41:08;;;;;;;7.15;4.95;;;;;;;10.66;56.90;100915.81;4978672;28;20025;-78
2022/04/12 07:43:34;;;;;;;7.95;5.00;;;;;;;10.74;56.88;100903.47;4978942;28;20034;-78
2022/04/12 07:45:59;;;;;;;12.02;4.72;;;;;;;10.86;57.62;100911.84;4983720;28;20026;-78
2022/04/12 07:48:24;;;;;;;8.45;5.05;;;;;;;10.95;55.54;100909.00;4976253;28;20497;-78
2022/04/12 07:50:50;;;;;;;8.60;4.80;;;;;;;11.02;56.28;100907.94;4977194;28;20034;-78
2022/04/12 07:53:15;;;;;;;7.25;4.82;;;;;;;11.11;56.83;100917.25;4975223;28;20450;-78
2022/04/12 07:55:40;;;;;;;7.05;4.72;;;;;;;11.19;56.29;100914.44;4976541;28;20031;-78
2022/04/12 07:58:06;;;;;;;7.00;4.88;;;;;;;11.29;57.49;100915.88;4976135;28;20033;-78
2022/04/12 08:00:31;;;;;;;7.82;4.90;;;;;;;11.37;56.45;100916.56;4976272;28;20474;-78
2022/04/12 08:02:56;;;;;;;10.02;4.88;;;;;;;11.47;56.49;100916.28;4977487;28;20035;-79
2022/04/12 08:05:22;;;;;;;7.32;4.97;;;;;;;11.58;57.63;100911.63;4980063;28;20117;-79
2022/04/12 08:07:47;;;;;;;7.25;4.65;;;;;;;11.68;56.35;100909.63;4976123;28;20054;-79
2022/04/12 08:10:19;;;;;;;10.73;5.28;;;;;;;11.79;56.32;100911.88;4975982;28;20458;-78
2022/04/12 08:12:46;;;;;;;8.25;4.75;;;;;;;11.89;55.58;100909.84;4978772;28;20481;-79
2022/04/12 08:15:12;;;;;;;7.30;4.60;;;;;;;11.99;56.03;100903.50;4975327;28;20114;-79
2022/04/12 08:17:38;;;;;;;6.82;4.60;;;;;;;12.07;54.73;100917.16;4974715;28;20055;-79
2022/04/12 08:20:05;;;;;;;6.78;4.05;;;;;;;12.14;54.24;100908.25;4966695;28;20104;-79
2022/04/12 08:22:31;;;;;;;8.02;4.68;;;;;;;12.24;55.03;100915.75;4976470;28;20026;-79
2022/04/12 08:24:57;;;;;;;6.97;4.65;;;;;;;12.32;55.18;100915.53;4975020;28;20047;-79
2022/04/12 08:27:22;;;;;;;10.02;4.40;;;;;;;12.35;56.36;100908.47;4979410;28;20412;-79
2022/04/12 08:29:47;;;;;;;6.53;4.22;;;;;;;12.41;55.10;100912.63;4976588;28;20484;-79
2022/04/12 08:32:13;;;;;;;7.57;4.45;;;;;;;12.47;54.96;100912.41;4974398;28;20042;-79
2022/04/12 08:34:39;;;;;;;11.48;4.88;;;;;;;12.56;55.69;100906.91;4958348;28;20023;-78
2022/04/12 08:37:05;;;;;;;8.48;4.15;;;;;;;12.63;54.35;100917.16;4974414;28;20049;-79
2022/04/12 08:39:31;;;;;;;9.73;4.28;;;;;;;12.70;54.76;100908.19;4974322;28;20031;-79
2022/04/12 08:41:59;;;;;;;9.05;4.45;;;;;;;12.78;54.00;100906.19;4978857;28;20026;-78
2022/04/12 08:44:25;;;;;;;9.43;4.20;;;;;;;12.85;54.47;100905.06;4978117;28;20124;-78
2022/04/12 08:46:50;;;;;;;7.10;4.18;;;;;;;12.90;53.84;100900.56;4981057;28;20166;-78
2022/04/12 08:49:16;;;;;;;8.65;3.55;;;;;;;12.97;53.84;100895.97;4975460;28;20118;-77
2022/04/12 08:51:42;;;;;;;7.20;3.75;;;;;;;13.04;52.93;100889.63;4974074;28;20535;-79
2022/04/12 08:54:09;;;;;;;6.30;3.88;;;;;;;13.09;52.44;100889.47;4973769;28;20037;-78
2022/04/12 08:56:35;;;;;;;6.10;3.60;;;;;;;13.13;52.72;100879.75;4974981;28;20488;-78
2022/04/12 08:59:00;;;;;;;6.20;3.85;;;;;;;13.16;54.38;100877.88;4973422;28;20026;-78
2022/04/12 09:01:25;;;;;;;5.82;3.53;;;;;;;13.21;54.93;100886.41;4983770;28;20034;-79
2022/04/12 09:03:50;;;;;;;7.10;3.58;;;;;;;13.27;53.15;100880.09;4976479;28;20043;-78
2022/04/12 09:06:16;;;;;;;7.40;3.42;;;;;;;13.34;53.57;100872.88;4978646;28;20475;-79
2022/04/12 09:08:41;;;;;;;5.78;2.97;;;;;;;13.38;51.05;100869.25;4975389;28;20035;-79
2022/04/12 09:11:08;;;;;;;6.40;3.03;;;;;;;13.41;51.97;100878.78;4978789;28;20027;-78
2022/04/12 09:13:35;;;;;;;5.13;2.88;;;;;;;13.46;53.56;100888.16;4981145;28;20522;-78
2022/04/12 09:16:06;;;;;;;5.43;2.80;;;;;;;13.52;53.40;100881.84;4974932;28;20046;-78
2022/04/12 09:18:39;;;;;;;5.40;2.90;;;;;;;13.59;52.11;100869.41;4978699;28;20034;-78
2022/04/12 09:21:09;;;;;;;5.65;2.83;;;;;;;13.68;52.43;100876.03;4983342;28;20402;-78
2022/04/12 09:23:35;;;;;;;11.07;2.88;;;;;;;13.73;53.82;100880.19;4976214;28;20031;-77
2022/04/12 09:26:00;;;;;;;16.00;2.95;;;;;;;13.77;51.58;100875.66;4973486;28;20022;-79
2022/04/12 09:28:37;;;;;;;13.90;3.05;;;;;;;13.81;53.35;100872.03;4976861;28;20030;-79
2022/04/12 09:31:13;;;;;;;5.85;2.88;;;;;;;13.88;52.38;100863.06;4956165;28;20022;-78
2022/04/12 09:33:39;;;;;;;8.48;2.92;;;;;;;13.94;52.52;100851.50;4978537;28;20088;-78
2022/04/12 09:36:05;;;;;;;5.20;2.65;;;;;;;14.01;51.33;100854.72;4976721;28;20031;-79
2022/04/12 09:38:39;;;;;;;5.10;2.80;;;;;;;14.05;51.09;100849.28;4978169;28;20034;-79
2022/04/12 09:41:18;;;;;;;5.00;2.95;;;;;;;14.13;52.29;100850.75;4963891;28;20619;-78
2022/04/12 09:43:53;;;;;;;5.65;2.55;;;;;;;14.20;52.79;100847.81;4974962;28;20030;-77
2022/04/12 09:46:19;;;;;;;6.22;2.90;;;;;;;14.27;50.98;100843.19;4975236;28;20163;-78
2022/04/12 09:48:47;;;;;;;4.47;2.50;;;;;;;14.32;51.76;100841.25;4976328;28;20261;-77
2022/04/12 09:51:13;;;;;;;5.15;2.70;;;;;;;14.39;50.75;100840.06;4981867;28;20033;-79
2022/04/12 09:53:39;;;;;;;6.30;3.13;;;;;;;14.47;50.73;100838.91;4972188;28;20026;-78
2022/04/12 09:56:16;;;;;;;7.07;2.85;;;;;;;14.53;51.91;100838.63;4972440;28;20022;-78
2022/04/12 09:58:44;;;;;;;6.40;2.90;;;;;;;14.58;50.60;100847.13;4972306;28;20077;-78
2022/04/12 10:01:10;;;;;;;7.60;2.88;;;;;;;14.64;51.40;100854.75;4975356;28;20034;-78
2022/04/12 10:03:36;;;;;;;7.90;3.00;;;;;;;14.74;51.30;100854.38;4974804;28;20035;-78
2022/04/12 10:06:03;;;;;;;6.00;2.80;;;;;;;14.81;51.50;100848.78;4975919;28;20492;-78
2022/04/12 10:08:33;;;;;;;5.55;2.60;;;;;;;14.91;49.83;100854.47;4978667;28;20030;-78
2022/04/12 10:10:59;;;;;;;5.68;2.80;;;;;;;15.05;51.02;100855.63;4982290;28;20524;-78
2022/04/12 10:13:26;;;;;;;5.38;2.67;;;;;;;15.14;50.00;100860.47;4972816;28;20026;-78
2022/04/12 10:15:52;;;;;;;4.20;2.38;;;;;;;15.23;49.48;100849.56;4974600;28;20386;-78
2022/04/12 10:18:20;;;;;;;4.65;2.67;;;;;;;15.35;50.04;100853.41;4974219;28;20114;-78
2022/04/12 10:20:46;;;;;;;5.88;2.90;;;;;;;15.47;49.13;100844.13;4976117;28;20049;-79
2022/04/12 10:23:14;;;;;;;5.80;2.85;;;;;;;15.58;49.13;100839.25;4976742;28;20057;-79
2022/04/12 10:25:40;;;;;;;4.97;2.80;;;;;;;15.65;47.99;100825.84;4979892;28;20057;-82
2022/04/12 10:28:09;;;;;;;5.25;2.70;;;;;;;15.69;47.65;100823.00;4975299;28;20054;-79
2022/04/12 10:30:34;;;;;;;4.75;2.40;;;;;;;15.73;47.85;100824.56;4976754;28;20378;-79
2022/04/12 10:33:17;;;;;;;3.72;2.20;;;;;;;15.86;48.97;100814.38;4975480;28;20035;-79
2022/04/12 10:35:42;;;;;;;5.90;2.67;;;;;;;16.03;49.00;100810.06;4963047;28;20034;-79
2022/04/12 10:38:08;;;;;;;7.72;2.38;;;;;;;16.15;48.35;100804.19;4973902;28;20143;-79
2022/04/12 10:40:34;;;;;;;5.68;2.33;;;;;;;16.27;48.01;100805.38;4983047;28;20470;-80
2022/04/12 10:43:04;;;;;;;8.43;2.95;;;;;;;16.38;47.90;100803.03;4977717;28;20040;-80
2022/04/12 10:45:33;;;;;;;5.53;2.75;;;;;;;16.47;48.12;100800.88;4973300;28;20031;-79
2022/04/12 10:48:03;;;;;;;4.88;2.78;;;;;;;16.49;47.36;100792.00;4976429;28;20133;-79
2022/04/12 10:50:40;;;;;;;6.32;3.05;;;;;;;16.54;48.45;100792.63;4976858;28;20090;-78
2022/04/12 10:53:05;;;;;;;5.13;2.60;;;;;;;16.62;46.54;100789.59;4976247;28;20210;-80
2022/04/12 10:55:38;;;;;;;4.85;2.53;;;;;;;16.75;47.41;100792.41;4984200;28;20166;-79
2022/04/12 10:58:14;;;;;;;5.90;2.63;;;;;;;16.86;48.03;100788.38;4973496;28;20125;-79
2022/04/12 11:00:43;;;;;;;4.40;2.60;;;;;;;16.92;47.60;100786.25;4973513;28;20129;-79
2022/04/12 11:03:08;;;;;;;5.35;2.85;;;;;;;16.96;48.29;100792.22;4973560;28;20030;-79
2022/04/12 11:05:37;;;;;;;5.93;2.50;;;;;;;17.00;46.07;100785.88;4976213;28;20040;-79
2022/04/12 11:08:14;;;;;;;5.47;2.30;;;;;;;17.05;46.91;100772.50;4975431;28;20026;-79
2022/04/12 11:10:59;;;;;;;7.47;2.35;;;;;;;17.11;47.10;100767.75;4988068;28;20030;-79
2022/04/12 11:13:28;;;;;;;5.82;2.30;;;;;;;17.16;46.67;100766.66;4972165;28;20501;-79
2022/04/12 11:15:56;;;;;;;4.72;2.30;;;;;;;17.23;46.70;100771.50;4979033;28;20036;-79
2022/04/12 11:18:21;;;;;;;6.53;2.30;;;;;;;17.32;44.51;100771.94;4978007;28;20031;-80
2022/04/12 11:21:02;;;;;;;5.70;2.42;;;;;;;17.41;46.31;100781.91;4978587;28;20032;-80
2022/04/12 11:23:46;;;;;;;3.72;2.20;;;;;;;17.56;46.27;100796.00;4978723;28;20035;-79
2022/04/12 11:26:32;;;;;;;6.72;2.05;;;;;;;17.72;47.05;100796.84;4978499;28;20034;-80
2022/04/12 11:28:58;;;;;;;5.22;2.50;;;;;;;17.87;45.94;100787.19;4985497;28;20026;-80